createdAt,value
2019-05-14T00:01:17.989Z,98011.69
2019-05-14T00:03:48.308Z,98011.37
2019-05-14T00:06:21.745Z,98008.69
2019-05-14T00:08:52.254Z,98009.00
2019-05-14T00:11:22.776Z,98002.84
2019-05-14T00:13:53.050Z,98006.41
2019-05-14T00:16:24.350Z,98009.88
2019-05-14T00:18:56.249Z,97994.22
2019-05-14T00:21:26.633Z,98003.16
2019-05-14T00:23:56.927Z,98004.50
2019-05-14T00:26:31.735Z,98006.63
2019-05-14T00:29:01.779Z,98002.19
2019-05-14T00:31:32.263Z,98001.72
2019-05-14T00:34:02.553Z,98002.94
2019-05-14T00:36:32.850Z,98000.16
2019-05-14T00:39:03.447Z,97995.56
2019-05-14T00:41:33.840Z,97986.53
2019-05-14T00:44:04.158Z,97993.66
2019-05-14T00:46:34.646Z,98002.97
2019-05-14T00:49:04.891Z,97998.16
2019-05-14T00:51:35.159Z,97986.63
2019-05-14T00:54:05.523Z,97991.13
2019-05-14T00:56:35.754Z,97986.63
2019-05-14T00:59:06.104Z,97986.53
2019-05-14T01:01:36.587Z,97978.66
2019-05-14T01:04:06.868Z,97982.69
2019-05-14T01:06:37.705Z,97971.63
2019-05-14T01:09:47.572Z,97978.75
2019-05-14T01:12:21.561Z,97972.09
2019-05-14T01:15:06.728Z,97968.56
2019-05-14T01:17:24.044Z,97973.84
2019-05-14T01:19:54.409Z,97970.60
2019-05-14T01:22:24.696Z,97972.41
2019-05-14T01:24:55.092Z,97980.72
2019-05-14T01:27:25.376Z,97974.41
2019-05-14T01:29:55.699Z,97966.81
2019-05-14T01:32:26.121Z,97966.73
2019-05-14T01:34:56.409Z,97963.35
2019-05-14T01:37:26.768Z,97969.50
2019-05-14T01:39:57.198Z,97970.48
2019-05-14T01:42:27.412Z,97970.85
2019-05-14T01:47:28.026Z,97962.70
2019-05-14T01:49:58.451Z,97962.70
2019-05-14T01:52:31.821Z,97958.20
2019-05-14T01:55:02.295Z,97947.35
2019-05-14T01:57:32.727Z,97945.07
2019-05-14T02:00:02.988Z,97962.53
2019-05-14T02:02:33.342Z,97956.29
2019-05-14T02:05:03.652Z,97950.55
2019-05-14T02:07:34.838Z,97942.54
2019-05-14T02:10:07.518Z,97948.89
2019-05-14T02:12:37.834Z,97940.27
2019-05-14T02:15:08.456Z,97933.55
2019-05-14T02:17:41.128Z,97932.67
2019-05-14T02:20:12.634Z,97938.05
2019-05-14T02:22:42.747Z,97933.64
2019-05-14T02:25:12.991Z,97928.73
2019-05-14T02:27:43.465Z,97926.14
2019-05-14T02:30:13.742Z,97928.73
2019-05-14T02:32:44.034Z,97925.58
2019-05-14T02:35:14.306Z,97921.55
2019-05-14T02:37:44.747Z,97924.30
2019-05-14T02:40:15.076Z,97915.39
2019-05-14T02:42:45.910Z,97914.42
2019-05-14T02:45:19.529Z,97911.83
2019-05-14T02:47:50.310Z,97914.11
2019-05-14T02:50:20.485Z,97911.42
2019-05-14T02:52:50.850Z,97908.27
2019-05-14T02:55:21.231Z,97910.95
2019-05-14T02:57:51.499Z,97906.93
2019-05-14T03:00:21.922Z,97905.00
2019-05-14T03:02:52.383Z,97906.97
2019-05-14T03:05:22.736Z,97909.38
2019-05-14T03:07:52.991Z,97901.81
2019-05-14T03:10:23.423Z,97906.37
2019-05-14T03:12:53.724Z,97907.30
2019-05-14T03:15:24.128Z,97895.94
2019-05-14T03:17:54.494Z,97891.81
2019-05-14T03:20:24.746Z,97895.31
2019-05-14T03:23:03.070Z,97901.90
2019-05-14T03:25:30.161Z,97895.34
2019-05-14T03:27:59.882Z,97893.30
2019-05-14T03:30:32.480Z,97900.42
2019-05-14T03:33:03.550Z,97888.34
2019-05-14T03:35:42.472Z,97891.27
2019-05-14T03:38:09.229Z,97886.47
2019-05-14T03:40:39.964Z,97891.05
2019-05-14T03:43:10.542Z,97889.86
2019-05-14T03:45:40.865Z,97886.80
2019-05-14T03:48:11.146Z,97890.83
2019-05-14T03:50:42.433Z,97892.54
2019-05-14T03:53:12.696Z,97896.66
2019-05-14T03:55:42.953Z,97887.91
2019-05-14T03:58:14.268Z,97889.41
2019-05-14T04:00:55.067Z,97900.14
2019-05-14T04:03:25.476Z,97890.37
2019-05-14T04:05:58.851Z,97898.66
2019-05-14T04:08:29.286Z,97897.23
2019-05-14T04:11:00.995Z,97892.65
2019-05-14T04:13:31.578Z,97893.60
2019-05-14T04:16:03.387Z,97896.64
2019-05-14T04:18:40.286Z,97896.21
2019-05-14T04:21:10.043Z,97900.87
2019-05-14T04:23:40.759Z,97902.12
2019-05-14T04:26:11.079Z,97899.75
2019-05-14T04:28:41.439Z,97899.09
2019-05-14T04:31:11.706Z,97906.59
2019-05-14T04:33:42.148Z,97904.59
2019-05-14T04:36:12.342Z,97910.74
2019-05-14T04:38:42.620Z,97911.52
2019-05-14T04:41:12.975Z,97913.18
2019-05-14T04:43:43.245Z,97913.96
2019-05-14T04:46:13.596Z,97917.58
2019-05-14T04:48:44.335Z,97920.27
2019-05-14T04:51:14.902Z,97913.96
2019-05-14T04:53:45.178Z,97909.62
2019-05-14T04:56:15.712Z,97917.52
2019-05-14T04:58:49.594Z,97911.27
2019-05-14T05:01:21.020Z,97922.39
2019-05-14T05:03:51.450Z,97905.72
2019-05-14T05:06:21.813Z,97899.41
2019-05-14T05:08:52.067Z,97908.72
2019-05-14T05:11:22.316Z,97909.19
2019-05-14T05:13:53.597Z,97905.59
2019-05-14T05:16:23.924Z,97907.72
2019-05-14T05:18:54.246Z,97898.53
2019-05-14T05:21:24.607Z,97902.88
2019-05-14T05:23:54.851Z,97905.47
2019-05-14T05:26:25.386Z,97904.81
2019-05-14T05:29:03.565Z,97908.41
2019-05-14T05:31:29.268Z,97901.59
2019-05-14T05:33:59.454Z,97909.59
2019-05-14T05:36:29.781Z,97916.21
2019-05-14T05:39:00.103Z,97910.99
2019-05-14T05:41:31.957Z,97912.27
2019-05-14T05:44:02.282Z,97910.94
2019-05-14T05:46:33.023Z,97909.02
2019-05-14T05:49:03.332Z,97910.74
2019-05-14T05:51:33.600Z,97918.33
2019-05-14T05:54:03.836Z,97910.64
2019-05-14T05:56:34.716Z,97911.05
2019-05-14T05:59:05.932Z,97910.95
2019-05-14T06:01:44.943Z,97907.02
2019-05-14T06:04:08.925Z,97905.11
2019-05-14T06:06:39.592Z,97908.17
2019-05-14T06:09:09.877Z,97906.98
2019-05-14T06:11:40.195Z,97906.58
2019-05-14T06:14:10.452Z,97899.95
2019-05-14T06:16:40.732Z,97891.02
2019-05-14T06:19:11.067Z,97899.95
2019-05-14T06:21:41.380Z,97903.02
2019-05-14T06:24:11.752Z,97899.08
2019-05-14T06:26:42.011Z,97897.27
2019-05-14T06:29:12.328Z,97903.11
2019-05-14T06:31:42.606Z,97895.05
2019-05-14T06:34:12.927Z,97898.14
2019-05-14T06:36:43.208Z,97899.86
2019-05-14T06:39:13.512Z,97896.70
2019-05-14T06:41:43.816Z,97897.17
2019-05-14T06:44:14.126Z,97894.02
2019-05-14T06:46:44.543Z,97894.39
2019-05-14T06:49:14.838Z,97894.80
2019-05-14T06:51:45.185Z,97890.77
2019-05-14T06:54:15.509Z,97883.58
2019-05-14T06:56:45.733Z,97880.39
2019-05-14T06:59:17.988Z,97884.42
2019-05-14T07:01:48.947Z,97886.17
2019-05-14T07:04:20.268Z,97886.17
2019-05-14T07:06:50.668Z,97882.51
2019-05-14T07:09:21.723Z,97883.86
2019-05-14T07:11:52.004Z,97886.54
2019-05-14T07:14:22.252Z,97886.95
2019-05-14T07:16:52.604Z,97887.32
2019-05-14T07:19:22.895Z,97893.20
2019-05-14T07:21:53.189Z,97891.85
2019-05-14T07:24:23.541Z,97887.83
2019-05-14T07:26:53.856Z,97887.41
2019-05-14T07:29:25.388Z,97890.41
2019-05-14T07:31:58.085Z,97887.73
2019-05-14T07:34:28.368Z,97890.51
2019-05-14T07:36:58.917Z,97883.38
2019-05-14T07:39:29.387Z,97882.45
2019-05-14T07:41:59.618Z,97881.95
2019-05-14T07:44:29.941Z,97873.41
2019-05-14T07:47:00.204Z,97870.16
2019-05-14T07:49:30.530Z,97870.26
2019-05-14T07:52:00.706Z,97866.69
2019-05-14T07:54:31.024Z,97873.88
2019-05-14T07:57:01.335Z,97878.22
2019-05-14T07:59:31.637Z,97876.78
2019-05-14T08:02:01.902Z,97872.13
2019-05-14T08:04:32.233Z,97873.73
2019-05-14T08:07:03.157Z,97876.52
2019-05-14T08:09:33.415Z,97874.30
2019-05-14T08:12:03.652Z,97877.77
2019-05-14T08:14:41.868Z,97876.83
2019-05-14T08:17:08.632Z,97876.83
2019-05-14T08:19:39.082Z,97875.08
2019-05-14T08:22:09.783Z,97873.36
2019-05-14T08:24:40.165Z,97876.16
2019-05-14T08:27:10.409Z,97877.96
2019-05-14T08:29:40.824Z,97877.49
2019-05-14T08:32:11.417Z,97873.83
2019-05-14T08:34:41.653Z,97860.86
2019-05-14T08:37:11.897Z,97870.77
2019-05-14T08:39:42.309Z,97855.48
2019-05-14T08:42:13.679Z,97860.02
2019-05-14T08:44:44.030Z,97852.80
2019-05-14T08:47:14.316Z,97849.27
2019-05-14T08:49:46.645Z,97855.28
2019-05-14T08:52:19.013Z,97855.69
2019-05-14T08:54:53.748Z,97849.34
2019-05-14T08:57:20.875Z,97855.12
2019-05-14T08:59:51.198Z,97850.98
2019-05-14T09:02:21.423Z,97849.53
2019-05-14T09:04:54.596Z,97838.22
2019-05-14T09:07:23.798Z,97836.20
2019-05-14T09:09:54.017Z,97839.20
2019-05-14T09:12:24.352Z,97830.56
2019-05-14T09:14:54.679Z,97828.19
2019-05-14T09:17:24.939Z,97822.70
2019-05-14T09:20:06.250Z,97820.89
2019-05-14T09:22:28.946Z,97815.89
2019-05-14T09:25:00.042Z,97806.88
2019-05-14T09:27:30.749Z,97804.83
2019-05-14T09:30:01.045Z,97798.27
2019-05-14T09:32:32.409Z,97793.93
2019-05-14T09:35:03.022Z,97792.69
2019-05-14T09:37:33.293Z,97784.72
2019-05-14T09:40:09.449Z,97775.89
2019-05-14T09:42:39.885Z,97764.83
2019-05-14T09:45:11.359Z,97757.92
2019-05-14T09:47:41.971Z,97756.11
2019-05-14T09:50:19.386Z,97756.11
2019-05-14T09:52:44.448Z,97757.48
2019-05-14T09:55:14.839Z,97755.38
2019-05-14T09:57:45.199Z,97761.36
2019-05-14T10:00:18.158Z,97765.75
2019-05-14T10:02:49.184Z,97761.38
2019-05-14T10:05:20.303Z,97754.36
2019-05-14T10:07:50.602Z,97741.77
2019-05-14T10:10:21.032Z,97737.84
2019-05-14T10:12:56.753Z,97732.16
2019-05-14T10:15:23.388Z,97728.23
2019-05-14T10:17:54.053Z,97729.10
2019-05-14T10:20:36.763Z,97721.61
2019-05-14T10:22:58.565Z,97723.80
2019-05-14T10:25:28.823Z,97720.27
2019-05-14T10:27:59.190Z,97723.02
2019-05-14T10:30:29.694Z,97726.27
2019-05-14T10:33:09.227Z,97723.78
2019-05-14T10:35:32.072Z,97724.72
2019-05-14T10:38:04.694Z,97711.02
2019-05-14T10:40:35.310Z,97716.55
2019-05-14T10:43:05.576Z,97705.51
2019-05-14T10:45:38.485Z,97702.61
2019-05-14T10:48:09.763Z,97697.45
2019-05-14T10:50:55.842Z,97694.14
2019-05-14T10:53:12.638Z,97691.82
2019-05-14T10:55:43.093Z,97706.33
2019-05-14T10:58:14.400Z,97699.52
2019-05-14T11:00:44.676Z,97699.21
2019-05-14T11:03:14.988Z,97692.91
2019-05-14T11:05:45.324Z,97688.88
2019-05-14T11:08:15.616Z,97682.53
2019-05-14T11:10:46.057Z,97682.94
2019-05-14T11:13:18.791Z,97676.33
2019-05-14T11:15:48.889Z,97674.88
2019-05-14T11:18:20.071Z,97673.55
2019-05-14T11:20:51.486Z,97680.35
2019-05-14T11:23:22.129Z,97683.03
2019-05-14T11:25:52.863Z,97672.46
2019-05-14T11:28:23.282Z,97671.42
2019-05-14T11:30:54.595Z,97664.81
2019-05-14T11:33:25.006Z,97666.52
2019-05-14T11:35:58.328Z,97667.77
2019-05-14T11:38:36.932Z,97666.42
2019-05-14T11:41:00.730Z,97674.78
2019-05-14T11:43:30.966Z,97682.63
2019-05-14T11:46:01.300Z,97689.33
2019-05-14T11:48:31.582Z,97690.11
2019-05-14T11:51:02.081Z,97698.94
2019-05-14T11:53:32.371Z,97706.49
2019-05-14T11:56:02.596Z,97717.02
2019-05-14T11:58:35.111Z,97728.42
2019-05-14T12:01:05.473Z,97728.77
2019-05-14T12:03:35.825Z,97713.33
2019-05-14T12:06:06.212Z,97719.73
2019-05-14T12:08:41.879Z,97715.40
2019-05-14T12:11:11.301Z,97715.40
2019-05-14T12:13:44.774Z,97714.00
2019-05-14T12:16:15.129Z,97711.68
2019-05-14T12:18:48.142Z,97704.88
2019-05-14T12:21:17.917Z,97704.50
2019-05-14T12:23:48.636Z,97702.70
2019-05-14T12:26:19.821Z,97699.91
2019-05-14T12:28:50.309Z,97690.52
2019-05-14T12:31:20.638Z,97683.41
2019-05-14T12:33:50.958Z,97681.80
2019-05-14T12:36:21.325Z,97667.72
2019-05-14T12:38:51.701Z,97668.02
2019-05-14T12:41:21.928Z,97668.02
2019-05-14T12:43:52.320Z,97657.64
2019-05-14T12:46:22.617Z,97653.15
2019-05-14T12:48:52.925Z,97654.86
2019-05-14T12:51:23.255Z,97649.89
2019-05-14T12:53:53.657Z,97649.49
2019-05-14T12:56:23.973Z,97647.11
2019-05-14T12:58:54.351Z,97639.16
2019-05-14T13:01:24.648Z,97637.41
2019-05-14T13:03:54.971Z,97631.67
2019-05-14T13:06:25.309Z,97625.17
2019-05-14T13:08:55.716Z,97614.59
2019-05-14T13:11:26.111Z,97612.02
2019-05-14T13:13:58.632Z,97613.05
2019-05-14T13:16:29.491Z,97620.33
2019-05-14T13:19:00.086Z,97619.75
2019-05-14T13:21:30.409Z,97628.06
2019-05-14T13:24:01.243Z,97619.80
2019-05-14T13:26:31.503Z,97613.20
2019-05-14T13:29:02.107Z,97608.13
2019-05-14T13:31:32.476Z,97607.27
2019-05-14T13:34:03.109Z,97599.58
2019-05-14T13:36:33.660Z,97604.11
2019-05-14T13:39:08.982Z,97596.53
2019-05-14T13:41:41.517Z,97597.67
2019-05-14T13:44:21.289Z,97604.38
2019-05-14T13:46:44.026Z,97596.90
2019-05-14T13:49:14.333Z,97591.16
2019-05-14T13:51:44.595Z,97594.22
2019-05-14T13:54:14.911Z,97592.91
2019-05-14T13:56:45.346Z,97587.66
2019-05-14T13:59:15.694Z,97588.52
2019-05-14T14:01:48.492Z,97589.77
2019-05-14T14:04:18.435Z,97590.84
2019-05-14T14:06:49.145Z,97589.80
2019-05-14T14:09:19.622Z,97591.21
2019-05-14T14:11:50.017Z,97587.75
2019-05-14T14:14:20.397Z,97586.41
2019-05-14T14:16:50.827Z,97579.43
2019-05-14T14:19:21.301Z,97572.32
2019-05-14T14:21:51.795Z,97576.04
2019-05-14T14:24:22.130Z,97567.98
2019-05-14T14:26:52.325Z,97566.75
2019-05-14T14:29:22.839Z,97574.23
2019-05-14T14:31:53.348Z,97574.91
2019-05-14T14:34:24.045Z,97565.04
2019-05-14T14:36:55.291Z,97560.24
2019-05-14T14:39:25.540Z,97558.42
2019-05-14T14:41:58.298Z,97553.42
2019-05-14T14:44:29.148Z,97555.55
2019-05-14T14:47:05.448Z,97542.99
2019-05-14T14:49:35.825Z,97537.16
2019-05-14T14:52:06.156Z,97537.92
2019-05-14T14:54:38.150Z,97534.84
2019-05-14T14:57:09.508Z,97534.27
2019-05-14T14:59:39.814Z,97533.80
2019-05-14T15:02:10.541Z,97536.02
2019-05-14T15:04:41.910Z,97526.72
2019-05-14T15:07:12.350Z,97534.27
2019-05-14T15:09:42.711Z,97532.66
2019-05-14T15:12:12.975Z,97535.04
2019-05-14T15:14:43.263Z,97531.04
2019-05-14T15:17:13.524Z,97517.81
2019-05-14T15:19:43.776Z,97518.95
2019-05-14T15:22:14.061Z,97513.00
2019-05-14T15:24:44.385Z,97513.20
2019-05-14T15:27:15.439Z,97515.31
2019-05-14T15:29:48.699Z,97510.34
2019-05-14T15:32:19.738Z,97511.58
2019-05-14T15:34:50.764Z,97499.31
2019-05-14T15:37:21.068Z,97500.66
2019-05-14T15:39:51.530Z,97497.40
2019-05-14T15:42:21.916Z,97494.13
2019-05-14T15:44:55.989Z,97483.87
2019-05-14T15:47:24.194Z,97493.63
2019-05-14T15:49:54.745Z,97494.61
2019-05-14T15:52:25.200Z,97488.36
2019-05-14T15:54:55.778Z,97479.55
2019-05-14T15:57:28.718Z,97476.17
2019-05-14T16:00:00.778Z,97470.05
2019-05-14T16:02:30.286Z,97468.43
2019-05-14T16:05:01.006Z,97468.13
2019-05-14T16:07:31.338Z,97461.61
2019-05-14T16:10:01.729Z,97467.09
2019-05-14T16:12:32.429Z,97476.28
2019-05-14T16:15:03.081Z,97457.67
2019-05-14T16:17:34.261Z,97464.48
2019-05-14T16:20:05.061Z,97463.06
2019-05-14T16:22:35.544Z,97464.67
2019-05-14T16:25:08.848Z,97464.97
2019-05-14T16:27:42.200Z,97467.08
2019-05-14T16:30:12.885Z,97468.81
2019-05-14T16:32:43.189Z,97467.37
2019-05-14T16:35:13.634Z,97471.77
2019-05-14T16:37:43.921Z,97470.83
2019-05-14T16:40:14.177Z,97467.16
2019-05-14T16:42:44.767Z,97472.46
2019-05-14T16:45:15.254Z,97467.92
2019-05-14T16:47:45.622Z,97462.08
2019-05-14T16:50:18.877Z,97459.40
2019-05-14T16:52:49.427Z,97454.90
2019-05-14T16:55:26.499Z,97444.52
2019-05-14T16:57:51.734Z,97448.48
2019-05-14T17:00:22.095Z,97433.78
2019-05-14T17:02:52.398Z,97431.02
2019-05-14T17:05:23.457Z,97433.59
2019-05-14T17:07:54.350Z,97434.47
2019-05-14T17:10:24.661Z,97437.99
2019-05-14T17:12:57.584Z,97438.50
2019-05-14T17:15:28.849Z,97440.20
2019-05-14T17:17:59.890Z,97435.81
2019-05-14T17:20:30.228Z,97440.61
2019-05-14T17:23:09.082Z,97440.68
2019-05-14T17:25:39.216Z,97439.27
2019-05-14T17:28:09.717Z,97437.52
2019-05-14T17:30:40.038Z,97441.45
2019-05-14T17:33:10.869Z,97437.84
2019-05-14T17:35:43.648Z,97437.38
2019-05-14T17:38:13.972Z,97433.81
2019-05-14T17:40:44.331Z,97429.79
2019-05-14T17:43:14.787Z,97426.23
2019-05-14T17:45:48.256Z,97429.79
2019-05-14T17:48:18.998Z,97428.81
2019-05-14T17:50:49.634Z,97427.47
2019-05-14T17:53:20.061Z,97426.63
2019-05-14T17:55:50.969Z,97423.44
2019-05-14T17:58:22.695Z,97420.75
2019-05-14T18:00:53.057Z,97424.42
2019-05-14T18:03:23.619Z,97428.34
2019-05-14T18:05:54.135Z,97426.63
2019-05-14T18:08:24.520Z,97435.92
2019-05-14T18:10:58.310Z,97436.40
2019-05-14T18:13:27.163Z,97432.77
2019-05-14T18:15:58.053Z,97430.55
2019-05-14T18:18:29.139Z,97429.20
2019-05-14T18:21:00.544Z,97424.71
2019-05-14T18:23:30.932Z,97427.39
2019-05-14T18:26:08.280Z,97422.50
2019-05-14T18:28:38.134Z,97423.08
2019-05-14T18:31:09.513Z,97433.24
2019-05-14T18:33:40.364Z,97428.73
2019-05-14T18:36:12.934Z,97426.63
2019-05-14T18:38:43.728Z,97429.50
2019-05-14T18:41:15.435Z,97419.52
2019-05-14T18:43:45.864Z,97419.99
2019-05-14T18:46:19.192Z,97415.49
2019-05-14T18:48:52.243Z,97413.28
2019-05-14T18:51:23.167Z,97420.36
2019-05-14T18:53:55.695Z,97423.05
2019-05-14T18:56:28.956Z,97432.73
2019-05-14T18:58:58.274Z,97422.39
2019-05-14T19:01:29.258Z,97422.39
2019-05-14T19:03:59.576Z,97420.18
2019-05-14T19:06:30.088Z,97421.88
2019-05-14T19:09:01.748Z,97418.36
2019-05-14T19:11:33.600Z,97415.09
2019-05-14T19:14:04.075Z,97415.56
2019-05-14T19:16:34.838Z,97403.48
2019-05-14T19:19:08.048Z,97405.69
2019-05-14T19:21:38.486Z,97407.88
2019-05-14T19:24:09.400Z,97407.40
2019-05-14T19:26:40.512Z,97404.24
2019-05-14T19:29:11.678Z,97411.72
2019-05-14T19:31:42.179Z,97409.03
2019-05-14T19:34:12.925Z,97412.19
2019-05-14T19:36:43.203Z,97405.48
2019-05-14T19:39:13.595Z,97405.37
2019-05-14T19:41:44.226Z,97405.37
2019-05-14T19:44:15.127Z,97407.69
2019-05-14T19:46:45.904Z,97403.66
2019-05-14T19:49:18.321Z,97401.92
2019-05-14T19:51:49.412Z,97392.52
2019-05-14T19:54:20.519Z,97378.61
2019-05-14T19:56:57.107Z,97374.98
2019-05-14T19:59:25.918Z,97362.78
2019-05-14T20:01:58.785Z,97366.81
2019-05-14T20:04:30.284Z,97378.50
2019-05-14T20:07:00.909Z,97383.80
2019-05-14T20:09:31.423Z,97384.05
2019-05-14T20:12:02.889Z,97391.64
2019-05-14T20:14:34.692Z,97393.75
2019-05-14T20:17:08.945Z,97383.87
2019-05-14T20:19:39.775Z,97385.40
2019-05-14T20:22:11.588Z,97380.53
2019-05-14T20:24:42.117Z,97377.19
2019-05-14T20:27:12.590Z,97374.62
2019-05-14T20:29:44.109Z,97374.03
2019-05-14T20:32:14.480Z,97375.56
2019-05-14T20:34:48.473Z,97373.45
2019-05-14T20:37:18.952Z,97369.72
2019-05-14T20:39:49.698Z,97369.61
2019-05-14T20:42:20.087Z,97362.20
2019-05-14T20:44:50.581Z,97366.45
2019-05-14T20:47:20.894Z,97359.16
2019-05-14T20:49:51.292Z,97362.89
2019-05-14T20:52:21.679Z,97363.00
2019-05-14T20:54:51.988Z,97357.81
2019-05-14T20:57:26.520Z,97344.48
2019-05-14T20:59:54.670Z,97356.80
2019-05-14T21:02:24.915Z,97350.08
2019-05-14T21:04:56.010Z,97345.47
2019-05-14T21:07:28.887Z,97350.84
2019-05-14T21:09:59.373Z,97334.40
2019-05-14T21:12:30.139Z,97330.11
2019-05-14T21:15:01.400Z,97339.11
2019-05-14T21:17:31.773Z,97331.81
2019-05-14T21:20:02.030Z,97334.39
2019-05-14T21:22:32.314Z,97331.70
2019-05-14T21:25:02.988Z,97324.52
2019-05-14T21:27:44.448Z,97327.20
2019-05-14T21:30:05.709Z,97326.69
2019-05-14T21:32:36.024Z,97329.31
2019-05-14T21:35:06.539Z,97331.64
2019-05-14T21:37:39.224Z,97327.97
2019-05-14T21:40:09.385Z,97323.77
2019-05-14T21:42:39.712Z,97325.77
2019-05-14T21:45:10.136Z,97319.64
2019-05-14T21:47:40.347Z,97326.67
2019-05-14T21:50:11.220Z,97321.48
2019-05-14T21:52:42.311Z,97317.17
2019-05-14T21:55:12.850Z,97311.72
2019-05-14T21:57:54.233Z,97307.70
2019-05-14T22:00:19.366Z,97308.28
2019-05-14T22:02:51.280Z,97307.77
2019-05-14T22:05:21.582Z,97298.02
2019-05-14T22:07:51.954Z,97291.08
2019-05-14T22:10:22.504Z,97285.81
2019-05-14T22:12:52.839Z,97275.48
2019-05-14T22:15:23.076Z,97265.03
2019-05-14T22:17:53.521Z,97270.59
2019-05-14T22:20:23.763Z,97265.97
2019-05-14T22:22:54.040Z,97256.58
2019-05-14T22:25:24.503Z,97252.88
2019-05-14T22:28:10.755Z,97249.25
2019-05-14T22:30:29.055Z,97247.33
2019-05-14T22:33:00.670Z,97249.84
2019-05-14T22:35:31.388Z,97245.48
2019-05-14T22:38:03.752Z,97239.16
2019-05-14T22:40:34.083Z,97232.68
2019-05-14T22:43:05.701Z,97234.67
2019-05-14T22:45:35.997Z,97229.23
2019-05-14T22:48:06.211Z,97235.08
2019-05-14T22:50:38.626Z,97229.89
2019-05-14T22:53:09.327Z,97232.11
2019-05-14T22:55:39.797Z,97234.61
2019-05-14T22:58:24.640Z,97234.20
2019-05-14T23:00:47.500Z,97227.42
2019-05-14T23:03:14.492Z,97224.34
2019-05-14T23:05:44.790Z,97222.34
2019-05-14T23:08:15.217Z,97221.88
2019-05-14T23:10:45.605Z,97216.15
2019-05-14T23:13:15.831Z,97222.34
2019-05-14T23:15:48.083Z,97222.45
2019-05-14T23:18:18.514Z,97224.20
2019-05-14T23:20:49.803Z,97219.78
2019-05-14T23:23:20.145Z,97216.33
2019-05-14T23:25:50.414Z,97213.47
2019-05-14T23:28:20.851Z,97209.05
2019-05-14T23:30:51.322Z,97208.75
2019-05-14T23:33:21.597Z,97207.98
2019-05-14T23:35:52.421Z,97213.47
2019-05-14T23:38:22.754Z,97211.62
2019-05-14T23:40:53.123Z,97207.92
2019-05-14T23:43:23.442Z,97206.18
2019-05-14T23:45:53.722Z,97201.97
2019-05-14T23:48:24.022Z,97195.84
2019-05-14T23:50:54.681Z,97193.92
2019-05-14T23:53:24.999Z,97191.24
2019-05-14T23:55:55.368Z,97190.19
2019-05-14T23:58:25.655Z,97192.98
